createdAt,value
2023-05-14T00:01:29.287Z,17.42
2023-05-14T00:04:01.159Z,17.30
2023-05-14T00:06:40.963Z,16.99
2023-05-14T00:09:13.257Z,16.92
2023-05-14T00:11:44.866Z,16.78
2023-05-14T00:14:16.470Z,16.77
2023-05-14T00:16:48.020Z,16.73
2023-05-14T00:19:19.651Z,16.54
2023-05-14T00:21:53.995Z,16.87
2023-05-14T00:24:25.605Z,17.00
2023-05-14T00:26:57.172Z,17.11
2023-05-14T00:29:28.898Z,17.27
2023-05-14T00:32:00.540Z,17.44
2023-05-14T00:34:32.145Z,17.42
2023-05-14T00:37:03.769Z,17.58
2023-05-14T00:39:37.679Z,17.59
2023-05-14T00:42:12.308Z,17.64
2023-05-14T00:44:43.845Z,17.67
2023-05-14T00:47:15.966Z,17.60
2023-05-14T00:49:47.561Z,17.49
2023-05-14T00:52:19.728Z,17.70
2023-05-14T00:54:51.854Z,17.70
2023-05-14T00:57:23.458Z,17.83
2023-05-14T00:59:55.504Z,17.80
2023-05-14T01:02:27.148Z,17.80
2023-05-14T01:04:58.828Z,17.75
2023-05-14T01:07:44.234Z,17.91
2023-05-14T01:10:29.325Z,17.95
2023-05-14T01:13:31.949Z,17.94
2023-05-14T01:16:05.084Z,18.15
2023-05-14T01:18:37.200Z,18.19
2023-05-14T01:21:43.163Z,17.82
2023-05-14T01:24:14.769Z,17.52
2023-05-14T01:26:46.475Z,17.67
2023-05-14T01:29:29.150Z,17.89
2023-05-14T01:32:04.319Z,17.95
2023-05-14T01:34:39.568Z,17.80
2023-05-14T01:37:12.840Z,17.89
2023-05-14T01:39:45.772Z,17.80
2023-05-14T01:42:17.384Z,17.94
2023-05-14T01:44:49.233Z,18.00
2023-05-14T01:47:20.879Z,18.07
2023-05-14T01:49:52.485Z,18.14
2023-05-14T01:52:24.168Z,18.11
2023-05-14T01:54:58.453Z,18.03
2023-05-14T01:57:30.061Z,17.98
2023-05-14T02:00:02.141Z,17.92
2023-05-14T02:02:33.890Z,17.85
2023-05-14T02:05:07.162Z,17.77
2023-05-14T02:07:39.330Z,17.80
2023-05-14T02:10:11.421Z,17.80
2023-05-14T02:12:43.026Z,17.82
2023-05-14T02:15:14.563Z,17.82
2023-05-14T02:17:46.127Z,17.88
2023-05-14T02:20:17.829Z,17.77
2023-05-14T02:22:49.381Z,17.79
2023-05-14T02:25:20.967Z,17.85
2023-05-14T02:27:52.526Z,17.91
2023-05-14T02:30:24.348Z,17.97
2023-05-14T02:32:56.286Z,17.93
2023-05-14T02:35:27.909Z,17.96
2023-05-14T02:37:59.641Z,17.85
2023-05-14T02:40:31.355Z,17.76
2023-05-14T02:43:03.011Z,17.73
2023-05-14T02:45:34.608Z,17.67
2023-05-14T02:48:06.627Z,17.70
2023-05-14T02:50:38.201Z,17.76
2023-05-14T02:53:09.879Z,17.70
2023-05-14T02:55:41.425Z,17.77
2023-05-14T02:58:16.058Z,17.75
2023-05-14T03:00:47.693Z,17.82
2023-05-14T03:03:22.120Z,17.61
2023-05-14T03:05:56.476Z,17.87
2023-05-14T03:08:28.085Z,17.96
2023-05-14T03:10:59.636Z,17.80
2023-05-14T03:13:31.226Z,17.82
2023-05-14T03:16:02.725Z,17.79
2023-05-14T03:18:36.299Z,17.61
2023-05-14T03:21:09.106Z,17.67
2023-05-14T03:23:40.946Z,17.44
2023-05-14T03:26:12.548Z,17.51
2023-05-14T03:28:44.963Z,17.36
2023-05-14T03:31:16.620Z,17.48
2023-05-14T03:33:48.447Z,17.56
2023-05-14T03:36:23.064Z,17.62
2023-05-14T03:38:54.620Z,17.78
2023-05-14T03:41:26.228Z,17.75
2023-05-14T03:43:57.810Z,17.84
2023-05-14T03:46:30.671Z,17.88
2023-05-14T03:49:02.340Z,17.88
2023-05-14T03:51:34.032Z,17.84
2023-05-14T03:54:07.078Z,17.78
2023-05-14T03:56:38.680Z,17.87
2023-05-14T03:59:10.334Z,17.86
2023-05-14T04:01:42.039Z,17.99
2023-05-14T04:04:13.749Z,17.83
2023-05-14T04:06:45.444Z,17.71
2023-05-14T04:09:17.044Z,18.00
2023-05-14T04:11:48.589Z,18.11
2023-05-14T04:14:20.173Z,18.13
2023-05-14T04:16:51.814Z,17.99
2023-05-14T04:19:25.531Z,18.12
2023-05-14T04:21:57.138Z,18.14
2023-05-14T04:24:31.891Z,17.61
2023-05-14T04:27:04.297Z,18.11
2023-05-14T04:29:35.921Z,18.30
2023-05-14T04:32:07.805Z,18.33
2023-05-14T04:34:40.033Z,18.42
2023-05-14T04:37:11.662Z,17.99
2023-05-14T04:39:43.603Z,18.29
2023-05-14T04:42:15.190Z,18.29
2023-05-14T04:44:46.803Z,18.34
2023-05-14T04:47:18.454Z,18.45
2023-05-14T04:49:50.295Z,18.56
2023-05-14T04:52:24.332Z,18.69
2023-05-14T04:54:56.953Z,18.62
2023-05-14T04:57:28.549Z,18.69
2023-05-14T05:00:00.124Z,18.86
2023-05-14T05:02:56.706Z,19.00
2023-05-14T05:05:42.907Z,18.90
2023-05-14T05:08:14.485Z,18.99
2023-05-14T05:10:46.139Z,18.83
2023-05-14T05:13:17.820Z,18.69
2023-05-14T05:15:49.439Z,18.86
2023-05-14T05:18:21.244Z,18.80
2023-05-14T05:20:56.219Z,18.82
2023-05-14T05:23:27.698Z,18.48
2023-05-14T05:25:59.255Z,18.53
2023-05-14T05:28:31.045Z,18.69
2023-05-14T05:31:02.946Z,18.82
2023-05-14T05:33:35.408Z,19.10
2023-05-14T05:36:09.715Z,19.04
2023-05-14T05:38:41.435Z,19.13
2023-05-14T05:41:13.065Z,19.14
2023-05-14T05:43:44.656Z,18.96
2023-05-14T05:46:16.414Z,18.65
2023-05-14T05:48:47.986Z,18.37
2023-05-14T05:51:19.656Z,18.39
2023-05-14T05:53:51.242Z,18.23
2023-05-14T05:56:22.809Z,18.24
2023-05-14T05:58:54.358Z,17.90
2023-05-14T06:01:26.724Z,17.90
2023-05-14T06:03:58.667Z,18.08
2023-05-14T06:06:30.791Z,18.43
2023-05-14T06:09:02.488Z,18.43
2023-05-14T06:11:34.112Z,18.43
2023-05-14T06:14:05.701Z,18.54
2023-05-14T06:16:44.484Z,18.86
2023-05-14T06:19:16.176Z,19.15
2023-05-14T06:21:47.891Z,18.94
2023-05-14T06:24:20.394Z,18.64
2023-05-14T06:26:52.057Z,18.85
2023-05-14T06:29:23.717Z,18.88
2023-05-14T06:32:03.095Z,19.57
2023-05-14T06:34:34.730Z,20.43
2023-05-14T06:37:07.135Z,20.43
2023-05-14T06:39:39.277Z,19.35
2023-05-14T06:42:10.847Z,19.42
2023-05-14T06:44:42.912Z,19.23
2023-05-14T06:47:14.538Z,19.77
2023-05-14T06:49:46.354Z,19.68
2023-05-14T06:52:17.969Z,19.43
2023-05-14T06:54:49.681Z,19.60
2023-05-14T06:57:21.363Z,19.18
2023-05-14T06:59:55.793Z,19.59
2023-05-14T07:02:29.688Z,19.05
2023-05-14T07:05:04.448Z,18.94
2023-05-14T07:07:36.029Z,19.05
2023-05-14T07:10:10.598Z,19.44
2023-05-14T07:12:42.394Z,19.58
2023-05-14T07:15:14.019Z,19.39
2023-05-14T07:17:45.682Z,19.94
2023-05-14T07:20:17.331Z,20.47
2023-05-14T07:22:49.002Z,20.70
2023-05-14T07:25:20.685Z,20.73
2023-05-14T07:27:52.303Z,20.59
2023-05-14T07:30:24.752Z,20.80
2023-05-14T07:32:56.848Z,20.51
2023-05-14T07:35:28.523Z,20.04
2023-05-14T07:38:00.352Z,20.72
2023-05-14T07:40:32.000Z,21.16
2023-05-14T07:43:03.628Z,20.55
2023-05-14T07:45:37.203Z,20.03
2023-05-14T07:48:09.090Z,20.39
2023-05-14T07:50:40.814Z,20.43
2023-05-14T07:53:15.615Z,19.92
2023-05-14T07:55:49.250Z,20.14
2023-05-14T07:58:20.824Z,20.64
2023-05-14T08:00:56.682Z,20.08
2023-05-14T08:03:28.479Z,20.99
2023-05-14T08:06:00.174Z,21.01
2023-05-14T08:08:31.863Z,21.76
2023-05-14T08:11:04.184Z,21.24
2023-05-14T08:13:38.112Z,21.79
2023-05-14T08:16:10.064Z,22.23
2023-05-14T08:18:44.044Z,21.50
2023-05-14T08:21:18.356Z,21.70
2023-05-14T08:23:49.883Z,21.76
2023-05-14T08:26:24.242Z,21.49
2023-05-14T08:28:55.862Z,21.66
2023-05-14T08:31:27.458Z,21.89
2023-05-14T08:33:59.194Z,22.18
2023-05-14T08:36:33.523Z,22.77
2023-05-14T08:39:09.094Z,23.37
2023-05-14T08:41:41.357Z,23.18
2023-05-14T08:44:20.896Z,23.67
2023-05-14T08:46:54.512Z,24.24
2023-05-14T08:49:43.086Z,23.29
2023-05-14T08:52:18.148Z,22.82
2023-05-14T08:54:53.646Z,23.45
2023-05-14T08:57:26.719Z,23.57
2023-05-14T08:59:58.550Z,23.67
2023-05-14T09:02:31.755Z,23.04
2023-05-14T09:05:04.289Z,23.62
2023-05-14T09:07:36.329Z,24.45
2023-05-14T09:10:09.182Z,24.21
2023-05-14T09:12:40.836Z,23.96
2023-05-14T09:15:13.226Z,22.28
2023-05-14T09:17:47.955Z,22.03
2023-05-14T09:20:22.593Z,21.68
2023-05-14T09:22:54.695Z,20.77
2023-05-14T09:25:28.462Z,21.49
2023-05-14T09:28:00.149Z,21.52
2023-05-14T09:30:32.247Z,20.62
2023-05-14T09:33:04.350Z,21.10
2023-05-14T09:35:41.436Z,20.73
2023-05-14T09:38:16.074Z,21.05
2023-05-14T09:40:48.167Z,21.34
2023-05-14T09:43:19.945Z,21.92
2023-05-14T09:45:52.660Z,21.61
2023-05-14T09:48:26.240Z,21.81
2023-05-14T09:50:57.918Z,21.86
2023-05-14T09:53:32.727Z,22.07
2023-05-14T09:56:04.613Z,22.54
2023-05-14T09:58:36.307Z,22.57
2023-05-14T10:01:08.332Z,23.12
2023-05-14T10:03:40.571Z,22.50
2023-05-14T10:06:16.242Z,22.43
2023-05-14T10:08:49.402Z,21.29
2023-05-14T10:11:33.320Z,21.14
2023-05-14T10:14:09.216Z,20.60
2023-05-14T10:16:48.480Z,20.96
2023-05-14T10:19:25.575Z,21.12
2023-05-14T10:22:05.104Z,21.46
2023-05-14T10:24:39.125Z,22.55
2023-05-14T10:27:13.226Z,23.66
2023-05-14T10:29:55.561Z,24.32
2023-05-14T10:32:27.395Z,24.59
2023-05-14T10:35:01.853Z,24.20
2023-05-14T10:37:33.458Z,23.94
2023-05-14T10:40:10.056Z,24.45
2023-05-14T10:42:43.763Z,24.82
2023-05-14T10:45:15.961Z,24.46
2023-05-14T10:47:48.740Z,24.31
2023-05-14T10:50:21.109Z,25.11
2023-05-14T10:52:57.108Z,24.07
2023-05-14T10:55:28.714Z,24.77
2023-05-14T10:58:01.465Z,24.58
2023-05-14T11:00:36.758Z,23.64
2023-05-14T11:03:10.863Z,22.15
2023-05-14T11:05:42.488Z,22.18
2023-05-14T11:08:17.022Z,22.09
2023-05-14T11:10:49.394Z,22.29
2023-05-14T11:13:21.685Z,22.09
2023-05-14T11:15:53.655Z,22.98
2023-05-14T11:18:33.554Z,23.76
2023-05-14T11:21:07.644Z,23.36
2023-05-14T11:23:39.217Z,22.39
2023-05-14T11:26:11.390Z,23.23
2023-05-14T11:28:44.592Z,23.76
2023-05-14T11:31:19.587Z,23.30
2023-05-14T11:33:52.498Z,24.21
2023-05-14T11:36:24.151Z,24.36
2023-05-14T11:38:55.730Z,23.89
2023-05-14T11:41:31.380Z,23.31
2023-05-14T11:44:03.494Z,22.43
2023-05-14T11:46:35.212Z,23.25
2023-05-14T11:49:07.062Z,22.66
2023-05-14T11:51:38.629Z,23.02
2023-05-14T11:54:10.620Z,22.90
2023-05-14T11:56:42.249Z,24.15
2023-05-14T11:59:13.831Z,23.94
2023-05-14T12:01:50.720Z,24.08
2023-05-14T12:04:22.908Z,24.05
2023-05-14T12:06:57.681Z,24.49
2023-05-14T12:09:29.230Z,25.06
2023-05-14T12:12:11.967Z,23.50
2023-05-14T12:14:45.266Z,23.62
2023-05-14T12:17:22.156Z,24.29
2023-05-14T12:19:53.919Z,25.93
2023-05-14T12:22:25.583Z,26.52
2023-05-14T12:24:59.953Z,25.52
2023-05-14T12:27:31.596Z,24.18
2023-05-14T12:30:20.593Z,23.02
2023-05-14T12:32:53.714Z,23.25
2023-05-14T12:35:25.523Z,24.39
2023-05-14T12:37:57.326Z,25.03
2023-05-14T12:40:29.062Z,24.33
2023-05-14T12:43:00.692Z,24.08
2023-05-14T12:45:32.419Z,23.80
2023-05-14T12:48:04.532Z,23.90
2023-05-14T12:50:36.093Z,24.34
2023-05-14T12:53:07.677Z,24.82
2023-05-14T12:55:39.285Z,24.40
2023-05-14T12:58:10.878Z,24.30
2023-05-14T13:00:42.467Z,24.20
2023-05-14T13:03:14.238Z,24.01
2023-05-14T13:05:45.946Z,22.61
2023-05-14T13:08:18.022Z,22.85
2023-05-14T13:10:49.646Z,22.45
2023-05-14T13:13:24.400Z,22.73
2023-05-14T13:15:55.947Z,23.11
2023-05-14T13:18:27.528Z,23.40
2023-05-14T13:21:04.360Z,22.96
2023-05-14T13:23:36.041Z,22.32
2023-05-14T13:26:07.786Z,22.28
2023-05-14T13:28:39.519Z,21.89
2023-05-14T13:31:13.230Z,22.16
2023-05-14T13:33:45.285Z,22.85
2023-05-14T13:36:16.988Z,22.81
2023-05-14T13:38:50.947Z,23.80
2023-05-14T13:41:22.675Z,24.07
2023-05-14T13:43:54.250Z,22.98
2023-05-14T13:46:26.327Z,23.23
2023-05-14T13:48:59.944Z,23.14
2023-05-14T13:51:31.529Z,23.37
2023-05-14T13:54:03.944Z,23.05
2023-05-14T13:56:35.608Z,23.44
2023-05-14T13:59:07.274Z,22.64
2023-05-14T14:01:38.942Z,24.76
2023-05-14T14:04:10.756Z,25.87
2023-05-14T14:06:44.679Z,26.03
2023-05-14T14:09:16.242Z,26.32
2023-05-14T14:11:48.513Z,25.21
2023-05-14T14:14:20.300Z,24.05
2023-05-14T14:16:53.004Z,23.44
2023-05-14T14:19:24.671Z,23.24
2023-05-14T14:21:58.336Z,25.99
2023-05-14T14:24:29.907Z,26.37
2023-05-14T14:27:02.433Z,25.18
2023-05-14T14:29:34.471Z,25.74
2023-05-14T14:32:06.715Z,26.42
2023-05-14T14:34:38.339Z,26.41
2023-05-14T14:37:10.055Z,27.92
2023-05-14T14:39:41.757Z,29.10
2023-05-14T14:42:13.447Z,27.86
2023-05-14T14:44:45.050Z,25.76
2023-05-14T14:47:16.617Z,25.61
2023-05-14T14:49:48.242Z,24.97
2023-05-14T14:52:19.901Z,25.35
2023-05-14T14:54:54.298Z,25.87
2023-05-14T14:57:26.740Z,26.28
2023-05-14T14:59:59.160Z,27.20
2023-05-14T15:02:31.605Z,29.13
2023-05-14T15:05:03.376Z,28.56
2023-05-14T15:07:34.977Z,27.96
2023-05-14T15:10:07.437Z,28.39
2023-05-14T15:12:39.139Z,28.56
2023-05-14T15:15:13.332Z,27.75
2023-05-14T15:17:47.991Z,21.51
2023-05-14T15:20:19.558Z,20.74
2023-05-14T15:22:52.441Z,20.26
2023-05-14T15:25:25.311Z,20.52
2023-05-14T15:27:57.073Z,22.71
2023-05-14T15:30:28.774Z,23.67
2023-05-14T15:33:00.721Z,22.56
2023-05-14T15:35:34.846Z,22.84
2023-05-14T15:38:07.008Z,24.48
2023-05-14T15:40:38.628Z,25.37
2023-05-14T15:43:13.055Z,25.29
2023-05-14T15:45:49.098Z,21.89
2023-05-14T15:48:20.712Z,22.35
2023-05-14T15:50:59.136Z,20.96
2023-05-14T15:53:30.745Z,20.80
2023-05-14T15:56:02.911Z,20.80
2023-05-14T15:58:34.564Z,20.90
2023-05-14T16:01:06.087Z,21.19
2023-05-14T16:03:37.862Z,21.00
2023-05-14T16:06:10.165Z,20.56
2023-05-14T16:08:41.704Z,20.88
2023-05-14T16:11:13.753Z,21.15
2023-05-14T16:13:45.319Z,20.72
2023-05-14T16:16:17.000Z,20.66
2023-05-14T16:18:51.734Z,20.84
2023-05-14T16:21:23.396Z,20.31
2023-05-14T16:23:54.964Z,19.78
2023-05-14T16:26:26.629Z,19.65
2023-05-14T16:28:58.223Z,19.17
2023-05-14T16:31:31.481Z,19.19
2023-05-14T16:34:06.153Z,19.42
2023-05-14T16:36:37.790Z,18.30
2023-05-14T16:39:09.349Z,18.39
2023-05-14T16:41:41.125Z,18.27
2023-05-14T16:44:18.544Z,18.42
2023-05-14T16:46:50.844Z,18.25
2023-05-14T16:49:22.890Z,18.30
2023-05-14T16:51:57.505Z,18.16
2023-05-14T16:54:29.059Z,18.35
2023-05-14T16:57:00.649Z,18.04
2023-05-14T16:59:32.202Z,18.25
2023-05-14T17:02:04.036Z,18.10
2023-05-14T17:04:38.830Z,18.23
2023-05-14T17:07:11.583Z,17.86
2023-05-14T17:09:43.223Z,18.25
2023-05-14T17:12:14.870Z,18.47
2023-05-14T17:14:46.424Z,18.29
2023-05-14T17:17:18.728Z,18.24
2023-05-14T17:19:50.347Z,18.23
2023-05-14T17:22:21.937Z,18.18
2023-05-14T17:24:53.515Z,17.90
2023-05-14T17:27:26.153Z,17.69
2023-05-14T17:29:57.738Z,17.63
2023-05-14T17:32:30.073Z,17.36
2023-05-14T17:35:01.758Z,17.48
2023-05-14T17:37:33.412Z,17.38
2023-05-14T17:40:10.089Z,17.30
2023-05-14T17:42:41.753Z,17.19
2023-05-14T17:45:14.494Z,17.26
2023-05-14T17:47:49.310Z,17.31
2023-05-14T17:50:21.113Z,17.27
2023-05-14T17:52:53.343Z,17.24
2023-05-14T17:55:25.917Z,17.37
2023-05-14T17:57:57.773Z,17.09
2023-05-14T18:00:30.156Z,17.40
2023-05-14T18:03:02.420Z,17.02
2023-05-14T18:05:34.828Z,17.03
2023-05-14T18:08:06.537Z,17.27
2023-05-14T18:10:38.378Z,17.33
2023-05-14T18:13:10.050Z,17.17
2023-05-14T18:15:41.957Z,17.27
2023-05-14T18:18:17.116Z,17.17
2023-05-14T18:20:49.509Z,17.17
2023-05-14T18:23:21.264Z,17.23
2023-05-14T18:25:52.975Z,17.36
2023-05-14T18:28:24.704Z,17.43
2023-05-14T18:30:59.489Z,17.41
2023-05-14T18:33:35.044Z,17.18
2023-05-14T18:36:06.754Z,17.57
2023-05-14T18:38:38.578Z,17.36
2023-05-14T18:41:10.244Z,17.39
2023-05-14T18:43:41.860Z,17.16
2023-05-14T18:46:16.229Z,17.26
2023-05-14T18:48:47.947Z,17.43
2023-05-14T18:51:19.531Z,17.46
2023-05-14T18:53:51.096Z,17.56
2023-05-14T18:56:22.679Z,17.55
2023-05-14T18:58:54.402Z,17.37
2023-05-14T19:01:26.211Z,17.61
2023-05-14T19:03:57.905Z,17.36
2023-05-14T19:06:29.614Z,17.30
2023-05-14T19:09:01.453Z,17.33
2023-05-14T19:11:33.067Z,17.55
2023-05-14T19:14:04.647Z,17.60
2023-05-14T19:16:38.702Z,17.58
2023-05-14T19:19:10.497Z,17.56
2023-05-14T19:21:42.168Z,17.54
2023-05-14T19:24:13.921Z,17.49
2023-05-14T19:26:47.689Z,17.63
2023-05-14T19:29:22.260Z,17.77
2023-05-14T19:31:53.888Z,17.92
2023-05-14T19:34:27.111Z,17.69
2023-05-14T19:36:58.830Z,17.61
2023-05-14T19:39:33.543Z,17.68
2023-05-14T19:42:05.772Z,17.74
2023-05-14T19:44:37.419Z,17.79
2023-05-14T19:47:09.137Z,17.22
2023-05-14T19:49:41.301Z,17.14
2023-05-14T19:52:13.087Z,17.15
2023-05-14T19:54:44.662Z,17.45
2023-05-14T19:57:19.430Z,17.63
2023-05-14T19:59:51.014Z,17.80
2023-05-14T20:02:22.712Z,17.74
2023-05-14T20:04:56.673Z,17.86
2023-05-14T20:07:29.445Z,17.86
2023-05-14T20:10:01.434Z,17.82
2023-05-14T20:12:35.863Z,17.66
2023-05-14T20:15:10.415Z,17.58
2023-05-14T20:17:42.546Z,17.49
2023-05-14T20:20:14.341Z,17.57
2023-05-14T20:22:45.957Z,17.37
2023-05-14T20:25:17.599Z,17.53
2023-05-14T20:27:49.602Z,17.51
2023-05-14T20:30:21.148Z,17.53
2023-05-14T20:32:52.955Z,17.69
2023-05-14T20:35:24.821Z,17.52
2023-05-14T20:37:56.647Z,17.60
2023-05-14T20:40:28.237Z,17.81
2023-05-14T20:43:07.081Z,17.99
2023-05-14T20:45:39.165Z,17.89
2023-05-14T20:48:12.868Z,17.89
2023-05-14T20:50:44.595Z,18.01
2023-05-14T20:53:16.203Z,18.07
2023-05-14T20:55:47.830Z,17.99
2023-05-14T20:58:20.445Z,17.99
2023-05-14T21:00:52.118Z,17.96
2023-05-14T21:03:23.879Z,18.01
2023-05-14T21:05:56.848Z,18.13
2023-05-14T21:08:28.914Z,18.21
2023-05-14T21:11:00.570Z,18.18
2023-05-14T21:13:32.600Z,18.19
2023-05-14T21:16:04.575Z,17.93
2023-05-14T21:18:36.650Z,17.90
2023-05-14T21:21:08.345Z,17.88
2023-05-14T21:23:39.973Z,17.90
2023-05-14T21:26:11.733Z,17.84
2023-05-14T21:28:43.420Z,17.69
2023-05-14T21:31:15.056Z,17.78
2023-05-14T21:33:46.742Z,17.40
2023-05-14T21:36:18.415Z,17.46
2023-05-14T21:38:50.059Z,17.31
2023-05-14T21:41:21.787Z,17.20
2023-05-14T21:43:55.530Z,17.45
2023-05-14T21:46:28.877Z,17.09
2023-05-14T21:49:02.719Z,16.86
2023-05-14T21:51:34.314Z,17.04
2023-05-14T21:54:07.244Z,17.19
2023-05-14T21:56:38.860Z,17.26
2023-05-14T21:59:11.177Z,17.18
2023-05-14T22:02:04.732Z,17.30
2023-05-14T22:04:37.838Z,17.38
2023-05-14T22:07:09.411Z,17.07
2023-05-14T22:09:44.080Z,17.24
2023-05-14T22:12:15.636Z,17.37
2023-05-14T22:14:47.252Z,17.36
2023-05-14T22:17:18.821Z,17.19
2023-05-14T22:19:50.412Z,17.28
2023-05-14T22:22:21.992Z,17.10
2023-05-14T22:24:53.752Z,16.72
2023-05-14T22:27:25.684Z,16.49
2023-05-14T22:29:58.441Z,16.50
2023-05-14T22:32:30.140Z,16.78
2023-05-14T22:35:01.991Z,16.79
2023-05-14T22:37:33.646Z,17.05
2023-05-14T22:40:07.733Z,16.74
2023-05-14T22:42:39.359Z,16.78
2023-05-14T22:45:11.355Z,17.01
2023-05-14T22:47:42.978Z,16.96
2023-05-14T22:50:15.221Z,16.89
2023-05-14T22:52:46.764Z,16.83
2023-05-14T22:55:18.379Z,16.95
2023-05-14T22:57:49.981Z,16.90
2023-05-14T23:00:21.745Z,16.73
2023-05-14T23:02:53.377Z,16.71
2023-05-14T23:05:25.379Z,16.63
2023-05-14T23:08:02.518Z,16.76
2023-05-14T23:10:35.602Z,16.58
2023-05-14T23:13:07.268Z,16.99
2023-05-14T23:15:38.957Z,16.83
2023-05-14T23:18:10.871Z,16.97
2023-05-14T23:20:42.561Z,16.71
2023-05-14T23:23:14.130Z,16.93
2023-05-14T23:25:45.799Z,16.80
2023-05-14T23:28:18.534Z,16.58
2023-05-14T23:30:50.119Z,16.64
2023-05-14T23:33:21.676Z,16.68
2023-05-14T23:35:53.274Z,16.66
2023-05-14T23:38:24.908Z,16.68
2023-05-14T23:40:56.493Z,16.67
2023-05-14T23:43:28.303Z,16.74
2023-05-14T23:46:00.539Z,16.55
2023-05-14T23:48:32.696Z,16.54
2023-05-14T23:51:04.266Z,16.41
2023-05-14T23:53:35.828Z,16.33
2023-05-14T23:56:10.108Z,16.28
2023-05-14T23:58:42.058Z,16.13
